Terminal Aerodrome Forecast
Issued by NWS

Home | Current Version | Previous Version | Text Only | Print | Product List | Glossary On
Versions: 1 2 3 4 5 6 7 8 9 10 11 12 13 14 15 16 17 18 19 20 21 22 23 24 25 26 27 28
029
FTUS43 KLSX 211135
TAFUIN
TAF
KUIN 211135Z 2112/2212 14008KT 6SM BR BKN025 OVC045
     FM211500 16008KT P6SM OVC030
     FM220000 14008KT P6SM OVC015
     FM220600 15012G19KT 5SM -SHRA BKN009=

USA.gov is the U.S. government's official web portal to all federal, state and local government web resources and services.